createdAt,value
2018-12-29T00:01:52.418Z,4.83
2018-12-29T00:04:20.884Z,4.86
2018-12-29T00:06:49.311Z,4.82
2018-12-29T00:09:17.965Z,4.84
2018-12-29T00:11:46.392Z,4.82
2018-12-29T00:14:14.857Z,4.82
2018-12-29T00:16:43.292Z,4.81
2018-12-29T00:19:11.765Z,4.83
2018-12-29T00:21:40.180Z,4.84
2018-12-29T00:24:08.634Z,4.87
2018-12-29T00:26:37.104Z,4.93
2018-12-29T00:29:05.508Z,5.02
2018-12-29T00:31:33.986Z,5.07
2018-12-29T00:34:02.378Z,5.02
2018-12-29T00:36:30.848Z,5.03
2018-12-29T00:38:59.780Z,5.05
2018-12-29T00:41:28.237Z,5.04
2018-12-29T00:43:56.736Z,4.98
2018-12-29T00:46:25.188Z,4.97
2018-12-29T00:48:53.594Z,4.92
2018-12-29T00:51:22.059Z,4.93
2018-12-29T00:53:50.487Z,4.96
2018-12-29T00:56:18.928Z,4.93
2018-12-29T00:58:47.442Z,4.99
2018-12-29T01:01:16.031Z,5.03
2018-12-29T01:03:44.465Z,5.06
2018-12-29T01:06:12.953Z,5.03
2018-12-29T01:08:41.368Z,5.02
2018-12-29T01:11:09.825Z,5.07
2018-12-29T01:13:38.439Z,5.06
2018-12-29T01:16:06.884Z,5.01
2018-12-29T01:18:35.337Z,5.01
2018-12-29T01:21:03.767Z,4.99
2018-12-29T01:23:32.211Z,4.96
2018-12-29T01:26:00.615Z,4.98
2018-12-29T01:28:29.086Z,5.05
2018-12-29T01:30:57.510Z,5.00
2018-12-29T01:33:25.972Z,5.00
2018-12-29T01:35:54.546Z,5.05
2018-12-29T01:38:23.001Z,5.05
2018-12-29T01:40:51.422Z,5.05
2018-12-29T01:43:19.875Z,5.05
2018-12-29T01:45:48.296Z,5.06
2018-12-29T01:48:16.753Z,5.08
2018-12-29T01:50:45.174Z,5.06
2018-12-29T01:53:13.620Z,5.08
2018-12-29T01:55:42.032Z,5.06
2018-12-29T01:58:10.484Z,5.08
2018-12-29T02:00:38.907Z,5.11
2018-12-29T02:03:07.439Z,5.03
2018-12-29T02:05:35.862Z,4.96
2018-12-29T02:08:04.288Z,4.91
2018-12-29T02:10:32.831Z,4.96
2018-12-29T02:13:01.374Z,5.03
2018-12-29T02:15:30.360Z,5.03
2018-12-29T02:17:58.932Z,5.04
2018-12-29T02:20:27.669Z,5.04
2018-12-29T02:22:56.161Z,5.03
2018-12-29T02:25:24.615Z,5.06
2018-12-29T02:27:53.027Z,5.07
2018-12-29T02:30:21.474Z,5.05
2018-12-29T02:32:49.929Z,5.03
2018-12-29T02:35:18.377Z,5.02
2018-12-29T02:37:47.159Z,4.98
2018-12-29T02:40:15.604Z,4.96
2018-12-29T02:42:44.049Z,4.96
2018-12-29T02:45:12.538Z,4.91
2018-12-29T02:47:40.985Z,4.82
2018-12-29T02:50:09.953Z,4.80
2018-12-29T02:52:38.384Z,4.82
2018-12-29T02:55:07.365Z,4.82
2018-12-29T02:57:35.805Z,4.85
2018-12-29T03:00:04.762Z,4.81
2018-12-29T03:02:33.193Z,4.77
2018-12-29T03:05:01.702Z,4.76
2018-12-29T03:07:30.179Z,4.80
2018-12-29T03:09:58.597Z,4.82
2018-12-29T03:12:27.105Z,4.89
2018-12-29T03:14:55.509Z,4.92
2018-12-29T03:17:23.967Z,5.00
2018-12-29T03:19:52.400Z,5.06
2018-12-29T03:22:20.839Z,5.00
2018-12-29T03:24:49.435Z,5.01
2018-12-29T03:27:17.877Z,5.06
2018-12-29T03:29:46.294Z,5.06
2018-12-29T03:32:14.745Z,5.10
2018-12-29T03:34:43.240Z,5.05
2018-12-29T03:37:11.644Z,5.01
2018-12-29T03:39:40.102Z,4.97
2018-12-29T03:42:08.573Z,5.03
2018-12-29T03:44:37.028Z,4.99
2018-12-29T03:47:05.651Z,5.03
2018-12-29T03:49:34.105Z,5.09
2018-12-29T03:52:02.526Z,5.15
2018-12-29T03:54:31.043Z,5.20
2018-12-29T03:56:59.477Z,5.19
2018-12-29T03:59:27.942Z,5.08
2018-12-29T04:01:56.352Z,5.07
2018-12-29T04:04:27.519Z,5.07
2018-12-29T04:06:56.011Z,5.05
2018-12-29T04:09:34.716Z,5.11
2018-12-29T04:12:09.063Z,5.15
2018-12-29T04:14:37.591Z,5.17
2018-12-29T04:17:06.061Z,5.18
2018-12-29T04:19:34.599Z,5.16
2018-12-29T04:22:02.983Z,5.12
2018-12-29T04:24:31.622Z,5.10
2018-12-29T04:27:00.053Z,5.12
2018-12-29T04:29:28.508Z,5.12
2018-12-29T04:31:56.932Z,5.11
2018-12-29T04:34:25.386Z,5.10
2018-12-29T04:36:53.793Z,5.14
2018-12-29T04:39:22.254Z,5.15
2018-12-29T04:41:50.782Z,5.13
2018-12-29T04:44:19.245Z,5.12
2018-12-29T04:46:47.678Z,5.13
2018-12-29T04:49:16.131Z,5.16
2018-12-29T04:51:44.586Z,5.03
2018-12-29T04:54:12.999Z,5.01
2018-12-29T04:56:41.488Z,4.94
2018-12-29T04:59:09.896Z,4.94
2018-12-29T05:01:38.352Z,5.01
2018-12-29T05:04:06.969Z,5.09
2018-12-29T05:06:35.410Z,5.14
2018-12-29T05:09:04.974Z,5.19
2018-12-29T05:11:33.560Z,5.25
2018-12-29T05:14:01.969Z,5.19
2018-12-29T05:16:30.643Z,5.16
2018-12-29T05:18:59.082Z,5.18
2018-12-29T05:21:28.049Z,5.20
2018-12-29T05:23:56.486Z,5.20
2018-12-29T05:26:24.914Z,5.25
2018-12-29T05:28:53.360Z,5.27
2018-12-29T05:31:21.802Z,5.25
2018-12-29T05:33:50.296Z,5.24
2018-12-29T05:36:18.713Z,5.20
2018-12-29T05:38:47.178Z,5.17
2018-12-29T05:41:15.602Z,5.20
2018-12-29T05:43:44.042Z,5.26
2018-12-29T05:46:12.473Z,5.23
2018-12-29T05:48:40.934Z,5.28
2018-12-29T05:51:09.361Z,5.32
2018-12-29T05:53:37.980Z,5.29
2018-12-29T05:56:06.393Z,5.24
2018-12-29T05:58:39.001Z,5.18
2018-12-29T06:01:07.431Z,5.13
2018-12-29T06:03:35.877Z,5.13
2018-12-29T06:06:04.311Z,5.12
2018-12-29T06:08:33.316Z,5.16
2018-12-29T06:11:01.779Z,5.12
2018-12-29T06:13:30.195Z,5.14
2018-12-29T06:15:58.653Z,5.15
2018-12-29T06:18:27.070Z,5.14
2018-12-29T06:20:55.515Z,5.11
2018-12-29T06:23:23.967Z,5.22
2018-12-29T06:25:52.424Z,5.27
2018-12-29T06:28:20.862Z,5.29
2018-12-29T06:30:49.449Z,5.38
2018-12-29T06:33:17.872Z,5.42
2018-12-29T06:35:46.329Z,5.46
2018-12-29T06:38:14.776Z,5.52
2018-12-29T06:40:43.795Z,5.50
2018-12-29T06:43:12.201Z,5.46
2018-12-29T06:45:40.644Z,5.42
2018-12-29T06:48:09.056Z,5.35
2018-12-29T06:50:37.515Z,5.35
2018-12-29T06:53:05.934Z,5.40
2018-12-29T06:55:34.398Z,5.44
2018-12-29T06:58:02.832Z,5.42
2018-12-29T07:00:31.260Z,5.45
2018-12-29T07:02:59.736Z,5.45
2018-12-29T07:05:28.170Z,5.48
2018-12-29T07:07:56.593Z,5.47
2018-12-29T07:10:25.156Z,5.49
2018-12-29T07:12:54.160Z,5.47
2018-12-29T07:15:22.604Z,5.49
2018-12-29T07:17:51.053Z,5.52
2018-12-29T07:20:19.488Z,5.57
2018-12-29T07:22:47.964Z,5.56
2018-12-29T07:25:16.412Z,5.60
2018-12-29T07:27:44.936Z,5.63
2018-12-29T07:30:13.420Z,5.61
2018-12-29T07:32:41.861Z,5.58
2018-12-29T07:35:10.281Z,5.61
2018-12-29T07:37:38.754Z,5.61
2018-12-29T07:40:07.267Z,5.66
2018-12-29T07:42:35.715Z,5.68
2018-12-29T07:45:04.576Z,5.69
2018-12-29T07:47:33.024Z,5.74
2018-12-29T07:50:01.441Z,5.76
2018-12-29T07:52:29.886Z,5.79
2018-12-29T07:54:58.348Z,5.75
2018-12-29T07:57:26.750Z,5.81
2018-12-29T07:59:55.188Z,5.80
2018-12-29T08:02:23.629Z,5.80
2018-12-29T08:04:52.086Z,5.76
2018-12-29T08:07:20.520Z,5.74
2018-12-29T08:09:48.952Z,5.75
2018-12-29T08:12:17.372Z,5.77
2018-12-29T08:14:45.810Z,5.82
2018-12-29T08:17:14.281Z,5.87
2018-12-29T08:19:42.745Z,5.82
2018-12-29T08:22:11.277Z,5.80
2018-12-29T08:24:39.734Z,5.80
2018-12-29T08:27:08.189Z,5.79
2018-12-29T08:29:36.716Z,5.82
2018-12-29T08:32:05.422Z,5.84
2018-12-29T08:34:33.951Z,5.84
2018-12-29T08:37:02.357Z,5.83
2018-12-29T08:39:30.779Z,5.84
2018-12-29T08:41:59.305Z,5.79
2018-12-29T08:44:27.758Z,5.80
2018-12-29T08:46:56.192Z,5.85
2018-12-29T08:49:24.598Z,5.87
2018-12-29T08:51:53.062Z,5.86
2018-12-29T08:54:21.472Z,5.87
2018-12-29T08:56:51.710Z,5.88
2018-12-29T08:59:20.125Z,5.90
2018-12-29T09:01:48.587Z,5.97
2018-12-29T09:04:16.998Z,6.04
2018-12-29T09:06:45.545Z,6.03
2018-12-29T09:09:13.976Z,6.03
2018-12-29T09:11:42.712Z,6.04
2018-12-29T09:14:11.648Z,6.06
2018-12-29T09:16:40.249Z,6.01
2018-12-29T09:19:08.751Z,5.99
2018-12-29T09:21:37.199Z,5.97
2018-12-29T09:24:05.628Z,6.02
2018-12-29T09:26:34.072Z,6.08
2018-12-29T09:29:02.558Z,6.08
2018-12-29T09:31:30.995Z,6.07
2018-12-29T09:33:59.440Z,6.09
2018-12-29T09:36:27.867Z,6.10
2018-12-29T09:38:56.323Z,6.13
2018-12-29T09:41:24.732Z,6.16
2018-12-29T09:43:53.203Z,6.18
2018-12-29T09:46:21.627Z,6.17
2018-12-29T09:48:50.098Z,6.20
2018-12-29T09:51:18.596Z,6.24
2018-12-29T09:53:47.055Z,6.24
2018-12-29T09:56:15.475Z,6.27
2018-12-29T09:58:43.941Z,6.25
2018-12-29T10:01:12.379Z,6.28
2018-12-29T10:03:40.842Z,6.30
2018-12-29T10:06:09.266Z,6.29
2018-12-29T10:08:37.755Z,6.32
2018-12-29T10:11:06.201Z,6.34
2018-12-29T10:13:44.768Z,6.39
2018-12-29T10:16:18.999Z,6.42
2018-12-29T10:18:52.022Z,6.44
2018-12-29T10:21:35.868Z,6.44
2018-12-29T10:24:03.090Z,6.45
2018-12-29T10:26:41.947Z,6.45
2018-12-29T10:29:22.538Z,6.47
2018-12-29T10:31:51.018Z,6.52
2018-12-29T10:34:23.516Z,6.56
2018-12-29T10:36:54.561Z,6.60
2018-12-29T10:39:29.111Z,6.63
2018-12-29T10:42:02.133Z,6.70
2018-12-29T10:44:33.359Z,6.68
2018-12-29T10:47:09.276Z,6.70
2018-12-29T10:49:43.572Z,6.75
2018-12-29T10:52:17.524Z,6.80
2018-12-29T10:54:47.067Z,6.85
2018-12-29T10:57:19.752Z,6.89
2018-12-29T10:59:51.261Z,6.95
2018-12-29T11:02:21.888Z,7.04
2018-12-29T11:04:51.974Z,7.06
2018-12-29T11:07:23.600Z,7.09
2018-12-29T11:09:53.570Z,7.09
2018-12-29T11:12:23.804Z,7.11
2018-12-29T11:14:52.274Z,7.13
2018-12-29T11:17:22.515Z,7.16
2018-12-29T11:19:54.148Z,7.22
2018-12-29T11:22:24.153Z,7.25
2018-12-29T11:24:54.135Z,7.26
2018-12-29T11:27:22.603Z,7.24
2018-12-29T11:29:51.102Z,7.25
2018-12-29T11:32:19.579Z,7.27
2018-12-29T11:34:48.024Z,7.24
2018-12-29T11:37:16.483Z,7.24
2018-12-29T11:39:45.006Z,7.29
2018-12-29T11:42:13.545Z,7.28
2018-12-29T11:44:42.014Z,7.32
2018-12-29T11:47:10.423Z,7.34
2018-12-29T11:49:38.907Z,7.45
2018-12-29T11:52:07.372Z,7.47
2018-12-29T11:54:36.245Z,7.51
2018-12-29T11:57:04.730Z,7.61
2018-12-29T11:59:34.740Z,7.62
2018-12-29T12:02:04.792Z,7.69
2018-12-29T12:04:33.233Z,7.70
2018-12-29T12:07:01.853Z,7.72
2018-12-29T12:09:30.471Z,7.72
2018-12-29T12:11:58.945Z,7.71
2018-12-29T12:14:27.397Z,7.73
2018-12-29T12:16:55.810Z,7.72
2018-12-29T12:19:26.317Z,7.75
2018-12-29T12:21:56.289Z,7.76
2018-12-29T12:24:26.149Z,7.77
2018-12-29T12:26:54.547Z,7.75
2018-12-29T12:29:25.186Z,7.76
2018-12-29T12:31:53.606Z,7.78
2018-12-29T12:34:22.055Z,7.80
2018-12-29T12:36:50.521Z,7.75
2018-12-29T12:39:20.637Z,7.76
2018-12-29T12:41:49.106Z,7.77
2018-12-29T12:44:17.634Z,7.76
2018-12-29T12:46:46.181Z,7.77
2018-12-29T12:49:14.989Z,7.77
2018-12-29T12:51:43.643Z,7.69
2018-12-29T12:54:12.657Z,7.66
2018-12-29T12:56:41.131Z,7.67
2018-12-29T12:59:09.808Z,7.70
2018-12-29T13:01:38.284Z,7.68
2018-12-29T13:04:06.823Z,7.67
2018-12-29T13:06:35.269Z,7.70
2018-12-29T13:09:05.369Z,7.77
2018-12-29T13:11:33.856Z,7.82
2018-12-29T13:14:02.455Z,7.82
2018-12-29T13:16:30.936Z,7.82
2018-12-29T13:18:59.352Z,7.81
2018-12-29T13:21:27.815Z,7.77
2018-12-29T13:23:56.514Z,7.76
2018-12-29T13:26:24.972Z,7.79
2018-12-29T13:28:53.768Z,7.81
2018-12-29T13:31:22.259Z,7.82
2018-12-29T13:33:50.697Z,7.80
2018-12-29T13:36:19.203Z,7.78
2018-12-29T13:38:47.625Z,7.77
2018-12-29T13:41:16.050Z,7.79
2018-12-29T13:43:44.546Z,7.73
2018-12-29T13:46:13.025Z,7.68
2018-12-29T13:48:41.501Z,7.66
2018-12-29T13:51:09.957Z,7.65
2018-12-29T13:53:38.484Z,7.63
2018-12-29T13:56:06.904Z,7.64
2018-12-29T13:58:36.412Z,7.63
2018-12-29T14:01:04.869Z,7.63
2018-12-29T14:03:33.844Z,7.61
2018-12-29T14:06:02.263Z,7.61
2018-12-29T14:08:30.711Z,7.63
2018-12-29T14:11:01.653Z,7.62
2018-12-29T14:13:30.117Z,7.60
2018-12-29T14:15:58.589Z,7.60
2018-12-29T14:18:28.396Z,7.60
2018-12-29T14:20:57.101Z,7.57
2018-12-29T14:23:25.819Z,7.52
2018-12-29T14:25:58.906Z,7.47
2018-12-29T14:28:27.439Z,7.48
2018-12-29T14:30:55.888Z,7.50
2018-12-29T14:33:24.329Z,7.49
2018-12-29T14:35:52.942Z,7.46
2018-12-29T14:38:21.385Z,7.43
2018-12-29T14:40:49.808Z,7.40
2018-12-29T14:43:18.255Z,7.40
2018-12-29T14:45:47.272Z,7.40
2018-12-29T14:48:15.686Z,7.38
2018-12-29T14:50:44.183Z,7.37
2018-12-29T14:53:12.552Z,7.36
2018-12-29T14:55:41.116Z,7.40
2018-12-29T14:58:09.541Z,7.37
2018-12-29T15:00:38.105Z,7.35
2018-12-29T15:03:06.534Z,7.37
2018-12-29T15:05:35.009Z,7.38
2018-12-29T15:08:03.501Z,7.35
2018-12-29T15:10:32.056Z,7.35
2018-12-29T15:13:00.555Z,7.33
2018-12-29T15:15:29.048Z,7.32
2018-12-29T15:17:57.569Z,7.31
2018-12-29T15:20:26.372Z,7.36
2018-12-29T15:22:55.107Z,7.38
2018-12-29T15:25:23.703Z,7.35
2018-12-29T15:27:52.160Z,7.35
2018-12-29T15:30:20.601Z,7.32
2018-12-29T15:32:49.134Z,7.30
2018-12-29T15:35:17.555Z,7.22
2018-12-29T15:37:46.018Z,7.20
2018-12-29T15:40:14.478Z,7.22
2018-12-29T15:42:45.061Z,7.25
2018-12-29T15:45:13.177Z,7.29
2018-12-29T15:47:41.685Z,7.29
2018-12-29T15:50:10.267Z,7.29
2018-12-29T15:52:38.868Z,7.30
2018-12-29T15:55:07.300Z,7.31
2018-12-29T15:57:35.751Z,7.32
2018-12-29T16:00:04.883Z,7.33
2018-12-29T16:02:33.374Z,7.32
2018-12-29T16:05:02.530Z,7.32
2018-12-29T16:07:30.950Z,7.29
2018-12-29T16:09:59.412Z,7.28
2018-12-29T16:12:27.865Z,7.30
2018-12-29T16:14:56.348Z,7.29
2018-12-29T16:17:24.840Z,7.28
2018-12-29T16:19:53.492Z,7.27
2018-12-29T16:22:22.005Z,7.20
2018-12-29T16:24:50.565Z,7.14
2018-12-29T16:27:19.262Z,7.04
2018-12-29T16:29:47.798Z,7.02
2018-12-29T16:32:16.324Z,6.98
2018-12-29T16:34:44.775Z,6.96
2018-12-29T16:37:13.396Z,7.00
2018-12-29T16:39:42.177Z,6.99
2018-12-29T16:42:10.793Z,6.97
2018-12-29T16:44:39.336Z,6.98
2018-12-29T16:47:07.776Z,7.02
2018-12-29T16:49:36.602Z,7.01
2018-12-29T16:52:05.150Z,6.99
2018-12-29T16:54:33.582Z,6.96
2018-12-29T16:57:02.100Z,6.99
2018-12-29T16:59:32.430Z,7.00
2018-12-29T17:02:00.893Z,7.05
2018-12-29T17:04:29.469Z,7.12
2018-12-29T17:06:57.904Z,7.17
2018-12-29T17:09:26.624Z,7.17
2018-12-29T17:11:55.084Z,7.18
2018-12-29T17:14:23.547Z,7.21
2018-12-29T17:16:51.991Z,7.20
2018-12-29T17:19:20.440Z,7.21
2018-12-29T17:21:48.898Z,7.21
2018-12-29T17:24:17.326Z,7.24
2018-12-29T17:26:45.805Z,7.27
2018-12-29T17:29:14.314Z,7.27
2018-12-29T17:31:42.735Z,7.29
2018-12-29T17:34:11.277Z,7.29
2018-12-29T17:36:42.049Z,7.26
2018-12-29T17:39:09.926Z,7.25
2018-12-29T17:41:38.358Z,7.26
2018-12-29T17:44:06.888Z,7.28
2018-12-29T17:46:35.610Z,7.31
2018-12-29T17:49:04.441Z,7.32
2018-12-29T17:51:32.855Z,7.35
2018-12-29T17:54:01.325Z,7.36
2018-12-29T17:56:30.122Z,7.37
2018-12-29T17:58:58.590Z,7.37
2018-12-29T18:01:27.094Z,7.36
2018-12-29T18:03:55.547Z,7.39
2018-12-29T18:06:24.049Z,7.40
2018-12-29T18:08:52.894Z,7.45
2018-12-29T18:11:21.307Z,7.47
2018-12-29T18:13:49.759Z,7.48
2018-12-29T18:16:18.590Z,7.55
2018-12-29T18:18:47.049Z,7.55
2018-12-29T18:21:15.511Z,7.57
2018-12-29T18:23:43.935Z,7.60
2018-12-29T18:26:12.416Z,7.64
2018-12-29T18:28:40.874Z,7.64
2018-12-29T18:31:09.327Z,7.65
2018-12-29T18:33:37.749Z,7.69
2018-12-29T18:36:06.282Z,7.68
2018-12-29T18:38:34.928Z,7.71
2018-12-29T18:41:03.383Z,7.73
2018-12-29T18:43:31.838Z,7.73
2018-12-29T18:46:00.283Z,7.73
2018-12-29T18:48:28.701Z,7.73
2018-12-29T18:50:57.158Z,7.77
2018-12-29T18:53:25.586Z,7.79
2018-12-29T18:55:54.141Z,7.81
2018-12-29T18:58:22.563Z,7.81
2018-12-29T19:00:51.023Z,7.81
2018-12-29T19:03:19.648Z,7.84
2018-12-29T19:05:48.109Z,7.85
2018-12-29T19:08:16.579Z,7.87
2018-12-29T19:10:45.023Z,7.90
2018-12-29T19:13:13.784Z,7.93
2018-12-29T19:15:42.380Z,7.99
2018-12-29T19:18:10.926Z,8.01
2018-12-29T19:20:39.332Z,8.06
2018-12-29T19:23:08.229Z,8.10
2018-12-29T19:25:36.668Z,8.14
2018-12-29T19:28:05.330Z,8.17
2018-12-29T19:30:34.279Z,8.20
2018-12-29T19:33:03.003Z,8.21
2018-12-29T19:35:31.443Z,8.25
2018-12-29T19:37:59.908Z,8.28
2018-12-29T19:40:28.337Z,8.29
2018-12-29T19:42:57.335Z,8.33
2018-12-29T19:45:28.452Z,8.36
2018-12-29T19:47:57.181Z,8.38
2018-12-29T19:50:25.885Z,8.44
2018-12-29T19:52:54.329Z,8.48
2018-12-29T19:55:22.830Z,8.51
2018-12-29T19:57:51.368Z,8.57
2018-12-29T20:00:20.170Z,8.61
2018-12-29T20:02:48.981Z,8.61
2018-12-29T20:05:17.622Z,8.63
2018-12-29T20:07:46.121Z,8.64
2018-12-29T20:10:14.658Z,8.65
2018-12-29T20:12:43.062Z,8.67
2018-12-29T20:15:11.524Z,8.70
2018-12-29T20:17:39.943Z,8.73
2018-12-29T20:20:08.570Z,8.78
2018-12-29T20:22:37.079Z,8.77
2018-12-29T20:25:06.270Z,8.80
2018-12-29T20:27:34.880Z,8.82
2018-12-29T20:30:03.623Z,8.85
2018-12-29T20:32:32.044Z,8.87
2018-12-29T20:35:00.601Z,8.87
2018-12-29T20:37:29.059Z,8.86
2018-12-29T20:39:57.660Z,8.88
2018-12-29T20:42:26.446Z,8.88
2018-12-29T20:44:55.044Z,8.91
2018-12-29T20:47:23.481Z,8.97
2018-12-29T20:49:51.947Z,9.00
2018-12-29T20:52:20.488Z,9.04
2018-12-29T20:54:49.025Z,9.05
2018-12-29T20:57:17.487Z,9.11
2018-12-29T20:59:45.932Z,9.14
2018-12-29T21:02:14.394Z,9.15
2018-12-29T21:04:42.842Z,9.15
2018-12-29T21:07:11.282Z,9.13
2018-12-29T21:09:39.748Z,9.16
2018-12-29T21:12:08.200Z,9.21
2018-12-29T21:14:36.641Z,9.23
2018-12-29T21:17:05.105Z,9.26
2018-12-29T21:19:33.545Z,9.26
2018-12-29T21:22:02.062Z,9.26
2018-12-29T21:24:30.884Z,9.26
2018-12-29T21:27:00.240Z,9.25
2018-12-29T21:29:28.684Z,9.24
2018-12-29T21:31:57.131Z,9.24
2018-12-29T21:34:25.563Z,9.26
2018-12-29T21:36:54.040Z,9.27
2018-12-29T21:39:22.459Z,9.25
2018-12-29T21:41:50.908Z,9.25
2018-12-29T21:44:19.338Z,9.27
2018-12-29T21:46:47.771Z,9.25
2018-12-29T21:49:16.362Z,9.22
2018-12-29T21:51:45.057Z,9.22
2018-12-29T21:54:13.557Z,9.19
2018-12-29T21:56:41.995Z,9.17
2018-12-29T21:59:10.506Z,9.17
2018-12-29T22:01:38.965Z,9.16
2018-12-29T22:04:07.440Z,9.18
2018-12-29T22:06:36.211Z,9.19
2018-12-29T22:09:06.419Z,9.19
2018-12-29T22:11:36.362Z,9.16
2018-12-29T22:14:04.923Z,9.13
2018-12-29T22:16:33.370Z,9.10
2018-12-29T22:19:02.122Z,9.08
2018-12-29T22:21:30.604Z,9.07
2018-12-29T22:23:59.088Z,9.09
2018-12-29T22:26:27.501Z,9.10
2018-12-29T22:28:55.950Z,9.10
2018-12-29T22:31:24.444Z,9.07
2018-12-29T22:33:52.903Z,9.13
2018-12-29T22:36:21.455Z,9.10
2018-12-29T22:38:49.862Z,9.09
2018-12-29T22:41:18.316Z,9.08
2018-12-29T22:43:46.759Z,9.08
2018-12-29T22:46:15.380Z,9.08
2018-12-29T22:48:43.787Z,9.08
2018-12-29T22:51:12.248Z,9.08
2018-12-29T22:53:40.690Z,9.08
2018-12-29T22:56:09.203Z,9.08
2018-12-29T22:58:37.625Z,9.07
2018-12-29T23:01:06.365Z,9.07
2018-12-29T23:03:35.066Z,9.04
2018-12-29T23:06:05.282Z,9.03
2018-12-29T23:08:33.931Z,9.01
2018-12-29T23:11:02.669Z,9.05
2018-12-29T23:13:31.116Z,9.05
2018-12-29T23:15:59.563Z,9.04
2018-12-29T23:18:27.994Z,9.02
2018-12-29T23:20:56.497Z,8.98
2018-12-29T23:23:24.942Z,8.98
2018-12-29T23:25:53.545Z,8.97
2018-12-29T23:28:21.960Z,8.95
2018-12-29T23:30:50.456Z,8.98
2018-12-29T23:33:18.917Z,9.01
2018-12-29T23:35:47.359Z,9.00
2018-12-29T23:38:15.806Z,8.99
2018-12-29T23:40:44.224Z,9.02
2018-12-29T23:43:12.696Z,8.99
2018-12-29T23:45:41.294Z,8.98
2018-12-29T23:48:09.730Z,8.97
2018-12-29T23:50:38.154Z,8.96
2018-12-29T23:53:06.610Z,8.96
2018-12-29T23:55:35.426Z,8.97
2018-12-29T23:58:03.919Z,8.98
